sensor_id;sensor_type;location;lat;lon;timestamp;pressure;altitude;pressure_sealevel;temperature;humidity
29215;BME280;16252;49.816;7.964;2023-02-12T00:02:08;102045.38;;;8.67;57.89
29215;BME280;16252;49.816;7.964;2023-02-12T00:04:34;102055.78;;;8.75;57.95
29215;BME280;16252;49.816;7.964;2023-02-12T00:06:59;102128.13;;;9.17;57.88
29215;BME280;16252;49.816;7.964;2023-02-12T00:09:25;102124.13;;;9.04;57.74
29215;BME280;16252;49.816;7.964;2023-02-12T00:11:50;101935.41;;;8.07;57.77
29215;BME280;16252;49.816;7.964;2023-02-12T00:14:16;102137.53;;;9.27;57.91
29215;BME280;16252;49.816;7.964;2023-02-12T00:16:41;102034.66;;;8.68;57.95
29215;BME280;16252;49.816;7.964;2023-02-12T00:19:06;102032.06;;;8.65;57.83
29215;BME280;16252;49.816;7.964;2023-02-12T00:21:32;102038.13;;;8.71;57.81
29215;BME280;16252;49.816;7.964;2023-02-12T00:23:57;102064.38;;;8.83;57.86
29215;BME280;16252;49.816;7.964;2023-02-12T00:26:23;102049.63;;;8.73;57.98
29215;BME280;16252;49.816;7.964;2023-02-12T00:28:49;102031.06;;;8.70;57.84
29215;BME280;16252;49.816;7.964;2023-02-12T00:31:17;102127.69;;;9.29;58.03
29215;BME280;16252;49.816;7.964;2023-02-12T00:33:43;102066.03;;;8.87;58.01
29215;BME280;16252;49.816;7.964;2023-02-12T00:36:13;102132.03;;;9.32;58.16
29215;BME280;16252;49.816;7.964;2023-02-12T00:38:39;102123.53;;;9.21;58.00
29215;BME280;16252;49.816;7.964;2023-02-12T00:41:04;102107.09;;;9.08;58.11
29215;BME280;16252;49.816;7.964;2023-02-12T00:43:30;101977.22;;;8.32;58.04
29215;BME280;16252;49.816;7.964;2023-02-12T00:45:55;102110.69;;;9.07;58.21
29215;BME280;16252;49.816;7.964;2023-02-12T00:48:20;102139.38;;;9.25;58.29
29215;BME280;16252;49.816;7.964;2023-02-12T00:50:47;102134.91;;;9.26;58.33
29215;BME280;16252;49.816;7.964;2023-02-12T00:53:14;101960.81;;;8.17;58.21
29215;BME280;16252;49.816;7.964;2023-02-12T00:55:39;102122.00;;;9.14;58.41
29215;BME280;16252;49.816;7.964;2023-02-12T00:58:05;102126.28;;;9.19;58.44
29215;BME280;16252;49.816;7.964;2023-02-12T01:00:30;102134.09;;;9.24;58.28
29215;BME280;16252;49.816;7.964;2023-02-12T01:02:56;101989.53;;;8.36;58.21
29215;BME280;16252;49.816;7.964;2023-02-12T01:05:21;102137.59;;;9.26;58.33
29215;BME280;16252;49.816;7.964;2023-02-12T01:07:51;102004.22;;;8.49;58.46
29215;BME280;16252;49.816;7.964;2023-02-12T01:10:17;102139.69;;;9.41;57.62
29215;BME280;16252;49.816;7.964;2023-02-12T01:12:43;101967.84;;;8.20;58.12
29215;BME280;16252;49.816;7.964;2023-02-12T01:15:09;102020.22;;;8.49;58.21
29215;BME280;16252;49.816;7.964;2023-02-12T01:17:35;101961.06;;;8.11;58.26
29215;BME280;16252;49.816;7.964;2023-02-12T01:20:00;102001.94;;;8.37;58.38
29215;BME280;16252;49.816;7.964;2023-02-12T01:22:26;101971.69;;;8.13;58.27
29215;BME280;16252;49.816;7.964;2023-02-12T01:24:51;101949.88;;;8.00;58.33
29215;BME280;16252;49.816;7.964;2023-02-12T01:27:17;101942.84;;;7.97;58.32
29215;BME280;16252;49.816;7.964;2023-02-12T01:29:42;101925.28;;;7.92;58.15
29215;BME280;16252;49.816;7.964;2023-02-12T01:32:10;102015.25;;;8.38;58.35
29215;BME280;16252;49.816;7.964;2023-02-12T01:34:36;102040.78;;;8.45;58.36
29215;BME280;16252;49.816;7.964;2023-02-12T01:37:02;102125.19;;;9.00;58.45
29215;BME280;16252;49.816;7.964;2023-02-12T01:39:28;102077.19;;;8.73;58.36
29215;BME280;16252;49.816;7.964;2023-02-12T01:41:53;101957.84;;;8.01;58.30
29215;BME280;16252;49.816;7.964;2023-02-12T01:44:21;102028.38;;;8.44;58.61
29215;BME280;16252;49.816;7.964;2023-02-12T01:46:49;101983.22;;;8.13;58.62
29215;BME280;16252;49.816;7.964;2023-02-12T01:49:18;102107.78;;;8.88;58.58
29215;BME280;16252;49.816;7.964;2023-02-12T01:51:50;101977.00;;;8.13;58.59
29215;BME280;16252;49.816;7.964;2023-02-12T01:54:19;101981.16;;;8.21;58.61
29215;BME280;16252;49.816;7.964;2023-02-12T01:56:46;101939.56;;;7.91;58.67
29215;BME280;16252;49.816;7.964;2023-02-12T01:59:11;102131.28;;;9.03;58.56
29215;BME280;16252;49.816;7.964;2023-02-12T02:01:37;102099.16;;;8.81;58.61
29215;BME280;16252;49.816;7.964;2023-02-12T02:04:12;101984.63;;;8.23;58.66
29215;BME280;16252;49.816;7.964;2023-02-12T02:06:56;102102.19;;;8.96;58.72
29215;BME280;16252;49.816;7.964;2023-02-12T02:09:23;102049.16;;;8.61;58.69
29215;BME280;16252;49.816;7.964;2023-02-12T02:11:49;102140.88;;;9.09;58.52
29215;BME280;16252;49.816;7.964;2023-02-12T02:14:33;102022.81;;;8.51;58.54
29215;BME280;16252;49.816;7.964;2023-02-12T02:17:27;102135.78;;;9.26;58.57
29215;BME280;16252;49.816;7.964;2023-02-12T02:22:50;102120.94;;;9.19;58.62
29215;BME280;16252;49.816;7.964;2023-02-12T02:28:54;102124.09;;;9.29;58.50
29215;BME280;16252;49.816;7.964;2023-02-12T02:31:25;102095.69;;;9.03;58.53
29215;BME280;16252;49.816;7.964;2023-02-12T02:37:14;102129.66;;;9.24;58.68
29215;BME280;16252;49.816;7.964;2023-02-12T02:39:44;102120.00;;;9.20;58.59
29215;BME280;16252;49.816;7.964;2023-02-12T02:42:21;102080.69;;;8.99;58.81
29215;BME280;16252;49.816;7.964;2023-02-12T02:44:58;102111.13;;;9.20;58.67
29215;BME280;16252;49.816;7.964;2023-02-12T02:47:31;102105.13;;;9.13;58.85
29215;BME280;16252;49.816;7.964;2023-02-12T02:50:16;102100.75;;;9.10;58.87
29215;BME280;16252;49.816;7.964;2023-02-12T02:52:47;102112.03;;;9.19;58.91
29215;BME280;16252;49.816;7.964;2023-02-12T02:55:16;102119.88;;;9.23;58.93
29215;BME280;16252;49.816;7.964;2023-02-12T02:57:56;102123.31;;;9.27;58.93
29215;BME280;16252;49.816;7.964;2023-02-12T03:00:36;102127.75;;;9.26;58.91
29215;BME280;16252;49.816;7.964;2023-02-12T03:03:14;102117.34;;;9.19;59.21
29215;BME280;16252;49.816;7.964;2023-02-12T03:05:46;102099.03;;;9.09;59.10
29215;BME280;16252;49.816;7.964;2023-02-12T03:08:22;102101.63;;;9.11;59.00
29215;BME280;16252;49.816;7.964;2023-02-12T03:10:54;102126.03;;;9.25;59.09
29215;BME280;16252;49.816;7.964;2023-02-12T03:13:31;102074.50;;;8.98;59.03
29215;BME280;16252;49.816;7.964;2023-02-12T03:16:22;102129.38;;;9.32;58.91
29215;BME280;16252;49.816;7.964;2023-02-12T03:18:54;102120.69;;;9.25;59.12
29215;BME280;16252;49.816;7.964;2023-02-12T03:21:42;102126.69;;;9.32;58.84
29215;BME280;16252;49.816;7.964;2023-02-12T03:24:39;102120.41;;;9.33;58.79
29215;BME280;16252;49.816;7.964;2023-02-12T03:27:16;102095.25;;;9.15;59.02
29215;BME280;16252;49.816;7.964;2023-02-12T03:29:43;102097.34;;;9.07;58.97
29215;BME280;16252;49.816;7.964;2023-02-12T03:32:21;102117.97;;;9.27;59.17
29215;BME280;16252;49.816;7.964;2023-02-12T03:34:49;102120.72;;;9.24;59.03
29215;BME280;16252;49.816;7.964;2023-02-12T03:37:23;102124.31;;;9.24;58.92
29215;BME280;16252;49.816;7.964;2023-02-12T03:40:22;102119.53;;;9.32;59.01
29215;BME280;16252;49.816;7.964;2023-02-12T03:48:02;102109.13;;;9.25;59.13
29215;BME280;16252;49.816;7.964;2023-02-12T03:53:16;102102.31;;;9.16;59.06
29215;BME280;16252;49.816;7.964;2023-02-12T03:55:44;102092.56;;;9.15;59.32
29215;BME280;16252;49.816;7.964;2023-02-12T03:58:12;102113.03;;;9.40;58.19
29215;BME280;16252;49.816;7.964;2023-02-12T04:00:40;102108.59;;;9.15;58.59
29215;BME280;16252;49.816;7.964;2023-02-12T04:03:06;102112.91;;;9.19;58.75
29215;BME280;16252;49.816;7.964;2023-02-12T04:05:31;102107.91;;;9.10;58.67
29215;BME280;16252;49.816;7.964;2023-02-12T04:07:57;102130.91;;;9.14;58.90
29215;BME280;16252;49.816;7.964;2023-02-12T04:16:06;102129.53;;;9.27;58.35
29215;BME280;16252;49.816;7.964;2023-02-12T04:18:44;102133.59;;;9.14;58.90
29215;BME280;16252;49.816;7.964;2023-02-12T04:24:08;102129.31;;;9.08;59.11
29215;BME280;16252;49.816;7.964;2023-02-12T04:29:17;102147.97;;;9.10;59.26
29215;BME280;16252;49.816;7.964;2023-02-12T04:31:55;102142.63;;;9.10;59.31
29215;BME280;16252;49.816;7.964;2023-02-12T04:34:26;102141.78;;;9.08;59.51
29215;BME280;16252;49.816;7.964;2023-02-12T04:36:58;102134.03;;;9.02;59.53
29215;BME280;16252;49.816;7.964;2023-02-12T04:39:29;102099.22;;;8.78;59.45
29215;BME280;16252;49.816;7.964;2023-02-12T04:41:59;102128.84;;;8.97;59.59
29215;BME280;16252;49.816;7.964;2023-02-12T04:44:27;102135.19;;;8.93;59.63
29215;BME280;16252;49.816;7.964;2023-02-12T04:46:53;102143.09;;;8.96;59.38
29215;BME280;16252;49.816;7.964;2023-02-12T04:49:20;102142.06;;;9.00;59.56
29215;BME280;16252;49.816;7.964;2023-02-12T04:51:46;102142.13;;;8.99;59.53
29215;BME280;16252;49.816;7.964;2023-02-12T04:54:13;102126.38;;;8.91;59.60
29215;BME280;16252;49.816;7.964;2023-02-12T04:56:39;102125.66;;;8.86;59.49
29215;BME280;16252;49.816;7.964;2023-02-12T04:59:05;102124.59;;;8.92;59.46
29215;BME280;16252;49.816;7.964;2023-02-12T05:01:32;102126.31;;;8.93;59.61
29215;BME280;16252;49.816;7.964;2023-02-12T05:03:58;102120.31;;;8.86;59.35
29215;BME280;16252;49.816;7.964;2023-02-12T05:06:23;102127.28;;;8.92;59.45
29215;BME280;16252;49.816;7.964;2023-02-12T05:08:48;102139.63;;;8.94;59.40
29215;BME280;16252;49.816;7.964;2023-02-12T05:11:13;102135.09;;;8.96;59.44
29215;BME280;16252;49.816;7.964;2023-02-12T05:13:39;102105.34;;;8.82;59.39
29215;BME280;16252;49.816;7.964;2023-02-12T05:16:06;102123.66;;;8.93;59.53
29215;BME280;16252;49.816;7.964;2023-02-12T05:18:33;102143.72;;;9.04;59.60
29215;BME280;16252;49.816;7.964;2023-02-12T05:21:01;102110.59;;;8.85;59.60
29215;BME280;16252;49.816;7.964;2023-02-12T05:23:32;102137.44;;;9.05;59.58
29215;BME280;16252;49.816;7.964;2023-02-12T05:25:59;102133.94;;;9.03;59.73
29215;BME280;16252;49.816;7.964;2023-02-12T05:28:25;102135.91;;;8.98;59.39
29215;BME280;16252;49.816;7.964;2023-02-12T05:30:50;102129.00;;;8.93;59.67
29215;BME280;16252;49.816;7.964;2023-02-12T05:33:16;102132.34;;;8.99;59.75
29215;BME280;16252;49.816;7.964;2023-02-12T05:35:41;102129.75;;;8.96;59.62
29215;BME280;16252;49.816;7.964;2023-02-12T05:38:06;102131.50;;;8.97;59.52
29215;BME280;16252;49.816;7.964;2023-02-12T05:40:32;102130.66;;;8.97;59.54
29215;BME280;16252;49.816;7.964;2023-02-12T05:42:57;102096.56;;;8.78;59.53
29215;BME280;16252;49.816;7.964;2023-02-12T05:45:22;102120.88;;;8.96;59.51
29215;BME280;16252;49.816;7.964;2023-02-12T05:47:52;102127.97;;;8.97;59.58
29215;BME280;16252;49.816;7.964;2023-02-12T05:50:17;102130.66;;;8.97;59.58
29215;BME280;16252;49.816;7.964;2023-02-12T05:52:43;102129.59;;;9.01;59.52
29215;BME280;16252;49.816;7.964;2023-02-12T05:55:08;102134.88;;;9.02;59.66
29215;BME280;16252;49.816;7.964;2023-02-12T05:57:33;102116.59;;;8.92;59.57
29215;BME280;16252;49.816;7.964;2023-02-12T05:59:58;102127.78;;;9.01;59.65
29215;BME280;16252;49.816;7.964;2023-02-12T06:02:24;102133.09;;;9.03;59.60
29215;BME280;16252;49.816;7.964;2023-02-12T06:04:49;102134.88;;;9.02;59.57
29215;BME280;16252;49.816;7.964;2023-02-12T06:07:14;102119.19;;;8.93;59.69
29215;BME280;16252;49.816;7.964;2023-02-12T06:09:39;102123.53;;;8.96;59.58
29215;BME280;16252;49.816;7.964;2023-02-12T06:12:05;102125.22;;;8.98;59.67
29215;BME280;16252;49.816;7.964;2023-02-12T06:14:30;102142.75;;;9.07;59.58
29215;BME280;16252;49.816;7.964;2023-02-12T06:16:55;102137.47;;;9.04;59.61
29215;BME280;16252;49.816;7.964;2023-02-12T06:19:20;102129.59;;;9.01;59.65
29215;BME280;16252;49.816;7.964;2023-02-12T06:21:46;102135.78;;;9.01;59.62
29215;BME280;16252;49.816;7.964;2023-02-12T06:24:12;102141.97;;;9.03;59.70
29215;BME280;16252;49.816;7.964;2023-02-12T06:26:38;102150.09;;;9.00;59.59
29215;BME280;16252;49.816;7.964;2023-02-12T06:29:03;102129.13;;;8.89;59.68
29215;BME280;16252;49.816;7.964;2023-02-12T06:31:31;102165.00;;;9.06;59.81
29215;BME280;16252;49.816;7.964;2023-02-12T06:34:00;102156.13;;;9.05;59.88
29215;BME280;16252;49.816;7.964;2023-02-12T06:36:25;102165.09;;;9.04;59.68
29215;BME280;16252;49.816;7.964;2023-02-12T06:38:51;102151.03;;;8.99;59.94
29215;BME280;16252;49.816;7.964;2023-02-12T06:41:16;102130.09;;;8.87;59.67
29215;BME280;16252;49.816;7.964;2023-02-12T06:43:42;102135.31;;;8.90;59.78
29215;BME280;16252;49.816;7.964;2023-02-12T06:46:07;102152.63;;;9.03;59.63
29215;BME280;16252;49.816;7.964;2023-02-12T06:48:33;102166.94;;;9.02;59.56
29215;BME280;16252;49.816;7.964;2023-02-12T06:51:14;102168.66;;;9.03;59.70
29215;BME280;16252;49.816;7.964;2023-02-12T06:53:40;102152.31;;;8.87;59.59
29215;BME280;16252;49.816;7.964;2023-02-12T06:56:07;102158.41;;;8.91;59.80
29215;BME280;16252;49.816;7.964;2023-02-12T06:58:36;102170.03;;;8.90;59.74
29215;BME280;16252;49.816;7.964;2023-02-12T07:01:12;102185.75;;;8.99;59.96
29215;BME280;16252;49.816;7.964;2023-02-12T07:03:48;102179.69;;;8.94;59.88
29215;BME280;16252;49.816;7.964;2023-02-12T07:06:14;102152.09;;;8.68;59.68
29215;BME280;16252;49.816;7.964;2023-02-12T07:08:39;102182.69;;;8.83;59.59
29215;BME280;16252;49.816;7.964;2023-02-12T07:11:05;102174.88;;;8.79;59.75
29215;BME280;16252;49.816;7.964;2023-02-12T07:13:31;102194.06;;;8.90;59.86
29215;BME280;16252;49.816;7.964;2023-02-12T07:16:05;102201.94;;;8.93;60.05
29215;BME280;16252;49.816;7.964;2023-02-12T07:18:30;102184.50;;;8.83;59.96
29215;BME280;16252;49.816;7.964;2023-02-12T07:20:56;102138.19;;;8.59;60.09
29215;BME280;16252;49.816;7.964;2023-02-12T07:23:21;102125.81;;;8.56;59.97
29215;BME280;16252;49.816;7.964;2023-02-12T07:26:00;102165.19;;;8.76;60.20
29215;BME280;16252;49.816;7.964;2023-02-12T07:28:26;102208.09;;;8.97;60.12
29215;BME280;16252;49.816;7.964;2023-02-12T07:30:52;102194.06;;;8.90;59.95
29215;BME280;16252;49.816;7.964;2023-02-12T07:33:17;102179.78;;;8.91;60.02
29215;BME280;16252;49.816;7.964;2023-02-12T07:35:43;102190.41;;;8.93;60.10
29215;BME280;16252;49.816;7.964;2023-02-12T07:38:08;102205.19;;;9.03;60.16
29215;BME280;16252;49.816;7.964;2023-02-12T07:40:33;102185.03;;;8.94;60.20
29215;BME280;16252;49.816;7.964;2023-02-12T07:42:59;102203.31;;;9.06;60.08
29215;BME280;16252;49.816;7.964;2023-02-12T07:45:24;102189.19;;;9.01;60.19
29215;BME280;16252;49.816;7.964;2023-02-12T07:47:49;102197.22;;;9.01;60.12
29215;BME280;16252;49.816;7.964;2023-02-12T07:50:15;102142.03;;;8.77;60.22
29215;BME280;16252;49.816;7.964;2023-02-12T07:52:40;102175.25;;;8.93;60.18
29215;BME280;16252;49.816;7.964;2023-02-12T07:55:06;102204.06;;;9.10;60.23
29215;BME280;16252;49.816;7.964;2023-02-12T07:57:33;102098.25;;;8.56;60.20
29215;BME280;16252;49.816;7.964;2023-02-12T07:59:59;102159.34;;;8.90;60.23
29215;BME280;16252;49.816;7.964;2023-02-12T08:02:24;102204.00;;;9.11;60.19
29215;BME280;16252;49.816;7.964;2023-02-12T08:04:54;102202.09;;;9.15;60.42
29215;BME280;16252;49.816;7.964;2023-02-12T08:07:20;102206.41;;;9.19;60.38
29215;BME280;16252;49.816;7.964;2023-02-12T08:09:45;102208.97;;;9.22;60.26
29215;BME280;16252;49.816;7.964;2023-02-12T08:12:10;102194.91;;;9.17;60.36
29215;BME280;16252;49.816;7.964;2023-02-12T08:14:36;102203.53;;;9.24;60.31
29215;BME280;16252;49.816;7.964;2023-02-12T08:17:01;102172.16;;;9.05;60.34
29215;BME280;16252;49.816;7.964;2023-02-12T08:19:26;102213.16;;;9.29;60.38
29215;BME280;16252;49.816;7.964;2023-02-12T08:21:53;102196.63;;;9.18;60.43
29215;BME280;16252;49.816;7.964;2023-02-12T08:24:18;102199.97;;;9.25;60.52
29215;BME280;16252;49.816;7.964;2023-02-12T08:26:46;102181.53;;;9.17;60.53
29215;BME280;16252;49.816;7.964;2023-02-12T08:29:14;102216.47;;;9.36;60.62
29215;BME280;16252;49.816;7.964;2023-02-12T08:31:41;102186.81;;;9.19;60.61
29215;BME280;16252;49.816;7.964;2023-02-12T08:34:15;102225.06;;;9.44;60.71
29215;BME280;16252;49.816;7.964;2023-02-12T08:36:41;102214.75;;;9.35;60.55
29215;BME280;16252;49.816;7.964;2023-02-12T08:39:08;102195.44;;;9.27;60.47
29215;BME280;16252;49.816;7.964;2023-02-12T08:41:35;102198.00;;;9.30;60.61
29215;BME280;16252;49.816;7.964;2023-02-12T08:44:03;102231.03;;;9.52;60.72
29215;BME280;16252;49.816;7.964;2023-02-12T08:46:37;102240.59;;;9.60;60.58
29215;BME280;16252;49.816;7.964;2023-02-12T08:49:09;102236.09;;;9.60;60.67
29215;BME280;16252;49.816;7.964;2023-02-12T08:51:38;102246.72;;;9.62;60.72
29215;BME280;16252;49.816;7.964;2023-02-12T08:54:06;102252.84;;;9.65;60.73
29215;BME280;16252;49.816;7.964;2023-02-12T08:56:33;102134.22;;;8.96;60.77
29215;BME280;16252;49.816;7.964;2023-02-12T08:59:00;102243.19;;;9.61;60.62
29215;BME280;16252;49.816;7.964;2023-02-12T09:01:28;102213.25;;;9.51;60.63
29215;BME280;16252;49.816;7.964;2023-02-12T09:03:54;102249.94;;;9.71;60.50
29215;BME280;16252;49.816;7.964;2023-02-12T09:06:21;102219.25;;;9.58;60.61
29215;BME280;16252;49.816;7.964;2023-02-12T09:08:47;102225.34;;;9.62;60.63
29215;BME280;16252;49.816;7.964;2023-02-12T09:11:15;102252.28;;;9.81;60.71
29215;BME280;16252;49.816;7.964;2023-02-12T09:13:42;102224.34;;;9.64;60.69
29215;BME280;16252;49.816;7.964;2023-02-12T09:16:08;102221.63;;;9.66;60.64
29215;BME280;16252;49.816;7.964;2023-02-12T09:18:33;102202.47;;;9.54;60.59
29215;BME280;16252;49.816;7.964;2023-02-12T09:21:05;102242.97;;;9.91;60.74
29215;BME280;16252;49.816;7.964;2023-02-12T09:23:31;102245.81;;;9.86;60.86
29215;BME280;16252;49.816;7.964;2023-02-12T09:25:56;102238.63;;;9.88;60.57
29215;BME280;16252;49.816;7.964;2023-02-12T09:28:22;102225.47;;;9.82;60.50
29215;BME280;16252;49.816;7.964;2023-02-12T09:30:47;102181.78;;;9.60;60.48
29215;BME280;16252;49.816;7.964;2023-02-12T09:33:13;102252.56;;;9.96;60.53
29215;BME280;16252;49.816;7.964;2023-02-12T09:35:38;102221.81;;;9.85;60.56
29215;BME280;16252;49.816;7.964;2023-02-12T09:38:04;102243.38;;;10.04;60.51
29215;BME280;16252;49.816;7.964;2023-02-12T09:40:35;102257.50;;;10.07;60.39
29215;BME280;16252;49.816;7.964;2023-02-12T09:43:28;102250.81;;;10.19;60.38
29215;BME280;16252;49.816;7.964;2023-02-12T09:46:31;102247.16;;;10.22;60.25
29215;BME280;16252;49.816;7.964;2023-02-12T09:51:58;102231.41;;;10.14;60.22
29215;BME280;16252;49.816;7.964;2023-02-12T09:54:30;102208.66;;;10.02;60.39
29215;BME280;16252;49.816;7.964;2023-02-12T09:57:00;102233.94;;;10.17;60.31
29215;BME280;16252;49.816;7.964;2023-02-12T09:59:40;102259.91;;;10.38;60.31
29215;BME280;16252;49.816;7.964;2023-02-12T10:02:14;102245.75;;;10.35;60.17
29215;BME280;16252;49.816;7.964;2023-02-12T10:04:45;102210.03;;;10.12;60.40
29215;BME280;16252;49.816;7.964;2023-02-12T10:07:23;102256.84;;;10.48;60.37
29215;BME280;16252;49.816;7.964;2023-02-12T10:13:26;102240.91;;;10.45;60.37
29215;BME280;16252;49.816;7.964;2023-02-12T10:15:39;102246.63;;;10.57;60.25
29215;BME280;16252;49.816;7.964;2023-02-12T10:18:47;102240.41;;;10.57;60.17
29215;BME280;16252;49.816;7.964;2023-02-12T10:21:36;102238.56;;;10.59;60.28
29215;BME280;16252;49.816;7.964;2023-02-12T10:26:35;102251.44;;;10.71;60.53
29215;BME280;16252;49.816;7.964;2023-02-12T10:29:12;102258.28;;;10.78;60.48
29215;BME280;16252;49.816;7.964;2023-02-12T10:31:42;102242.59;;;10.69;60.59
29215;BME280;16252;49.816;7.964;2023-02-12T10:34:15;102218.69;;;10.65;60.56
29215;BME280;16252;49.816;7.964;2023-02-12T10:36:46;102219.56;;;10.65;60.70
29215;BME280;16252;49.816;7.964;2023-02-12T10:39:21;102222.53;;;10.79;60.70
29215;BME280;16252;49.816;7.964;2023-02-12T10:42:07;102242.19;;;11.00;60.49
29215;BME280;16252;49.816;7.964;2023-02-12T10:44:34;102228.31;;;10.91;60.55
29215;BME280;16252;49.816;7.964;2023-02-12T10:47:00;102208.88;;;10.85;60.53
29215;BME280;16252;49.816;7.964;2023-02-12T10:49:25;102236.69;;;11.03;60.58
29215;BME280;16252;49.816;7.964;2023-02-12T10:52:02;102233.47;;;11.16;60.54
29215;BME280;16252;49.816;7.964;2023-02-12T10:54:44;102236.78;;;11.22;60.29
29215;BME280;16252;49.816;7.964;2023-02-12T10:57:13;102238.50;;;11.23;60.30
29215;BME280;16252;49.816;7.964;2023-02-12T10:59:42;102218.34;;;11.15;60.32
29215;BME280;16252;49.816;7.964;2023-02-12T11:02:21;102230.13;;;11.31;60.48
29215;BME280;16252;49.816;7.964;2023-02-12T11:04:47;102204.69;;;11.21;60.42
29215;BME280;16252;49.816;7.964;2023-02-12T11:07:13;102184.53;;;11.12;60.42
29215;BME280;16252;49.816;7.964;2023-02-12T11:09:41;102206.09;;;11.30;60.63
29215;BME280;16252;49.816;7.964;2023-02-12T11:12:35;102207.94;;;11.48;60.26
29215;BME280;16252;49.816;7.964;2023-02-12T11:15:12;102210.63;;;11.48;60.47
29215;BME280;16252;49.816;7.964;2023-02-12T11:17:43;102207.81;;;11.51;60.40
29215;BME280;16252;49.816;7.964;2023-02-12T11:22:57;102211.81;;;11.61;60.37
29215;BME280;16252;49.816;7.964;2023-02-12T11:25:25;102202.03;;;11.60;60.46
29215;BME280;16252;49.816;7.964;2023-02-12T11:27:59;102202.59;;;11.67;60.19
29215;BME280;16252;49.816;7.964;2023-02-12T11:30:26;102158.22;;;11.41;60.48
29215;BME280;16252;49.816;7.964;2023-02-12T11:32:51;102200.72;;;11.69;60.66
29215;BME280;16252;49.816;7.964;2023-02-12T11:35:18;102196.13;;;11.73;60.57
29215;BME280;16252;49.816;7.964;2023-02-12T11:37:51;102189.00;;;11.71;60.52
29215;BME280;16252;49.816;7.964;2023-02-12T11:40:20;102181.75;;;11.74;60.57
29215;BME280;16252;49.816;7.964;2023-02-12T11:42:49;102191.09;;;11.84;60.60
29215;BME280;16252;49.816;7.964;2023-02-12T11:45:17;102184.13;;;11.80;60.56
29215;BME280;16252;49.816;7.964;2023-02-12T11:47:44;102148.25;;;11.63;60.27
29215;BME280;16252;49.816;7.964;2023-02-12T11:50:24;102054.03;;;11.14;60.43
29215;BME280;16252;49.816;7.964;2023-02-12T11:52:53;102132.22;;;11.62;60.52
29215;BME280;16252;49.816;7.964;2023-02-12T11:55:36;102180.69;;;11.97;60.41
29215;BME280;16252;49.816;7.964;2023-02-12T12:00:40;102157.03;;;11.86;60.50
29215;BME280;16252;49.816;7.964;2023-02-12T12:03:21;102132.41;;;11.78;60.33
29215;BME280;16252;49.816;7.964;2023-02-12T12:05:59;102169.59;;;12.04;60.51
29215;BME280;16252;49.816;7.964;2023-02-12T12:08:34;102141.69;;;11.89;60.33
29215;BME280;16252;49.816;7.964;2023-02-12T12:11:28;102176.41;;;12.11;60.37
29215;BME280;16252;49.816;7.964;2023-02-12T12:14:41;102165.84;;;12.08;60.18
29215;BME280;16252;49.816;7.964;2023-02-12T12:17:42;102170.25;;;12.09;60.41
29215;BME280;16252;49.816;7.964;2023-02-12T12:20:31;102158.88;;;12.04;60.43
29215;BME280;16252;49.816;7.964;2023-02-12T12:23:05;102163.84;;;12.12;60.43
29215;BME280;16252;49.816;7.964;2023-02-12T12:25:43;102161.28;;;12.10;60.44
29215;BME280;16252;49.816;7.964;2023-02-12T12:31:22;102158.13;;;12.20;60.36
29215;BME280;16252;49.816;7.964;2023-02-12T12:33:50;102158.28;;;12.17;60.56
29215;BME280;16252;49.816;7.964;2023-02-12T12:36:35;102155.22;;;12.24;60.54
29215;BME280;16252;49.816;7.964;2023-02-12T12:42:13;102139.81;;;12.28;60.18
29215;BME280;16252;49.816;7.964;2023-02-12T12:48:07;102140.47;;;12.33;60.35
29215;BME280;16252;49.816;7.964;2023-02-12T13:07:41;102109.69;;;12.40;60.15
29215;BME280;16252;49.816;7.964;2023-02-12T13:15:27;102104.25;;;12.59;60.11
29215;BME280;16252;49.816;7.964;2023-02-12T13:23:45;102105.75;;;12.65;59.70
29215;BME280;16252;49.816;7.964;2023-02-12T13:26:21;102079.63;;;12.51;59.83
29215;BME280;16252;49.816;7.964;2023-02-12T13:28:58;102095.00;;;12.65;60.18
29215;BME280;16252;49.816;7.964;2023-02-12T13:31:27;102086.47;;;12.56;59.83
29215;BME280;16252;49.816;7.964;2023-02-12T13:33:57;102084.66;;;12.57;59.79
29215;BME280;16252;49.816;7.964;2023-02-12T13:36:23;102084.59;;;12.58;59.70
29215;BME280;16252;49.816;7.964;2023-02-12T13:39:13;102094.28;;;12.78;59.36
29215;BME280;16252;49.816;7.964;2023-02-12T13:41:46;102094.38;;;12.77;59.37
29215;BME280;16252;49.816;7.964;2023-02-12T13:44:21;102091.22;;;12.69;59.44
29215;BME280;16252;49.816;7.964;2023-02-12T13:47:20;102103.84;;;12.84;59.35
29215;BME280;16252;49.816;7.964;2023-02-12T13:50:01;102076.84;;;12.70;59.14
29215;BME280;16252;49.816;7.964;2023-02-12T13:52:51;102086.38;;;12.75;59.19
29215;BME280;16252;49.816;7.964;2023-02-12T13:55:28;102077.94;;;12.66;58.90
29215;BME280;16252;49.816;7.964;2023-02-12T14:00:57;102088.84;;;12.63;59.01
29215;BME280;16252;49.816;7.964;2023-02-12T14:03:25;102084.81;;;12.54;59.29
29215;BME280;16252;49.816;7.964;2023-02-12T14:06:12;102093.91;;;12.69;58.98
29215;BME280;16252;49.816;7.964;2023-02-12T14:08:41;102082.94;;;12.56;59.51
29215;BME280;16252;49.816;7.964;2023-02-12T14:11:10;102063.56;;;12.49;59.20
29215;BME280;16252;49.816;7.964;2023-02-12T14:13:47;102074.09;;;12.54;59.44
29215;BME280;16252;49.816;7.964;2023-02-12T14:27:51;102056.72;;;12.44;59.49
29215;BME280;16252;49.816;7.964;2023-02-12T14:30:32;102058.19;;;12.49;59.35
29215;BME280;16252;49.816;7.964;2023-02-12T14:33:16;102059.94;;;12.50;59.23
29215;BME280;16252;49.816;7.964;2023-02-12T14:35:44;102070.59;;;12.52;59.02
29215;BME280;16252;49.816;7.964;2023-02-12T14:43:17;102065.06;;;12.55;59.13
29215;BME280;16252;49.816;7.964;2023-02-12T14:45:47;102042.31;;;12.45;59.00
29215;BME280;16252;49.816;7.964;2023-02-12T14:51:15;102071.47;;;12.70;58.55
29215;BME280;16252;49.816;7.964;2023-02-12T14:53:43;102061.69;;;12.51;58.84
29215;BME280;16252;49.816;7.964;2023-02-12T14:56:10;102023.38;;;12.30;58.79
29215;BME280;16252;49.816;7.964;2023-02-12T14:58:36;102036.56;;;12.35;58.66